sensor_id;sensor_type;location;lat;lon;timestamp;temperature;humidity
16863;DHT22;52193;48.216;-1.698;2024-03-25T00:00:47;12.90;91.40
16863;DHT22;52193;48.216;-1.698;2024-03-25T00:03:14;12.90;91.50
16863;DHT22;52193;48.216;-1.698;2024-03-25T00:05:41;12.80;91.50
16863;DHT22;52193;48.216;-1.698;2024-03-25T00:08:07;12.80;91.50
16863;DHT22;52193;48.216;-1.698;2024-03-25T00:10:34;12.80;91.60
16863;DHT22;52193;48.216;-1.698;2024-03-25T00:13:00;12.70;91.60
16863;DHT22;52193;48.216;-1.698;2024-03-25T00:15:27;12.70;91.70
16863;DHT22;52193;48.216;-1.698;2024-03-25T00:17:53;12.70;91.80
16863;DHT22;52193;48.216;-1.698;2024-03-25T00:20:21;12.60;91.70
16863;DHT22;52193;48.216;-1.698;2024-03-25T00:22:47;12.60;91.80
16863;DHT22;52193;48.216;-1.698;2024-03-25T00:25:13;12.50;91.80
16863;DHT22;52193;48.216;-1.698;2024-03-25T00:27:42;12.50;91.90
16863;DHT22;52193;48.216;-1.698;2024-03-25T00:30:10;12.50;92.10
16863;DHT22;52193;48.216;-1.698;2024-03-25T00:32:36;12.50;92.10
16863;DHT22;52193;48.216;-1.698;2024-03-25T00:35:04;12.40;92.20
16863;DHT22;52193;48.216;-1.698;2024-03-25T00:37:31;12.40;92.20
16863;DHT22;52193;48.216;-1.698;2024-03-25T00:39:58;12.40;92.50
16863;DHT22;52193;48.216;-1.698;2024-03-25T00:42:24;12.40;92.20
16863;DHT22;52193;48.216;-1.698;2024-03-25T00:44:51;12.40;92.60
16863;DHT22;52193;48.216;-1.698;2024-03-25T00:47:17;12.30;92.30
16863;DHT22;52193;48.216;-1.698;2024-03-25T00:49:44;12.30;92.60
16863;DHT22;52193;48.216;-1.698;2024-03-25T00:52:10;12.30;92.40
16863;DHT22;52193;48.216;-1.698;2024-03-25T00:54:38;12.20;92.40
16863;DHT22;52193;48.216;-1.698;2024-03-25T00:57:04;12.20;92.40
16863;DHT22;52193;48.216;-1.698;2024-03-25T00:59:31;12.20;92.80
16863;DHT22;52193;48.216;-1.698;2024-03-25T01:01:57;12.20;92.50
16863;DHT22;52193;48.216;-1.698;2024-03-25T01:04:24;12.20;92.50
16863;DHT22;52193;48.216;-1.698;2024-03-25T01:06:50;12.20;92.90
16863;DHT22;52193;48.216;-1.698;2024-03-25T01:09:16;12.20;92.70
16863;DHT22;52193;48.216;-1.698;2024-03-25T01:11:44;12.10;92.70
16863;DHT22;52193;48.216;-1.698;2024-03-25T01:14:10;12.10;92.70
16863;DHT22;52193;48.216;-1.698;2024-03-25T01:16:36;12.20;92.80
16863;DHT22;52193;48.216;-1.698;2024-03-25T01:19:03;12.20;93.10
16863;DHT22;52193;48.216;-1.698;2024-03-25T01:21:29;12.20;92.70
16863;DHT22;52193;48.216;-1.698;2024-03-25T01:23:56;12.20;93.00
16863;DHT22;52193;48.216;-1.698;2024-03-25T01:26:22;12.20;92.70
16863;DHT22;52193;48.216;-1.698;2024-03-25T01:28:50;12.20;92.70
16863;DHT22;52193;48.216;-1.698;2024-03-25T01:31:16;12.20;92.60
16863;DHT22;52193;48.216;-1.698;2024-03-25T01:33:43;12.20;92.60
16863;DHT22;52193;48.216;-1.698;2024-03-25T01:36:09;12.20;92.60
16863;DHT22;52193;48.216;-1.698;2024-03-25T01:38:36;12.20;92.70
16863;DHT22;52193;48.216;-1.698;2024-03-25T01:41:09;12.20;92.60
16863;DHT22;52193;48.216;-1.698;2024-03-25T01:43:36;12.20;92.70
16863;DHT22;52193;48.216;-1.698;2024-03-25T01:46:04;12.20;92.70
16863;DHT22;52193;48.216;-1.698;2024-03-25T01:48:31;12.10;92.60
16863;DHT22;52193;48.216;-1.698;2024-03-25T01:50:58;12.10;92.60
16863;DHT22;52193;48.216;-1.698;2024-03-25T01:53:25;12.10;92.60
16863;DHT22;52193;48.216;-1.698;2024-03-25T01:55:55;12.10;92.60
16863;DHT22;52193;48.216;-1.698;2024-03-25T01:58:25;12.10;93.00
16863;DHT22;52193;48.216;-1.698;2024-03-25T02:00:52;12.00;92.60
16863;DHT22;52193;48.216;-1.698;2024-03-25T02:03:20;12.00;92.70
16863;DHT22;52193;48.216;-1.698;2024-03-25T02:05:49;12.00;92.70
16863;DHT22;52193;48.216;-1.698;2024-03-25T02:08:17;12.00;92.70
16863;DHT22;52193;48.216;-1.698;2024-03-25T02:10:44;12.00;93.00
16863;DHT22;52193;48.216;-1.698;2024-03-25T02:13:11;12.00;92.70
16863;DHT22;52193;48.216;-1.698;2024-03-25T02:15:38;12.00;92.70
16863;DHT22;52193;48.216;-1.698;2024-03-25T02:18:05;11.90;92.80
16863;DHT22;52193;48.216;-1.698;2024-03-25T02:20:32;11.90;92.80
16863;DHT22;52193;48.216;-1.698;2024-03-25T02:22:59;11.90;92.80
16863;DHT22;52193;48.216;-1.698;2024-03-25T02:25:26;11.90;92.80
16863;DHT22;52193;48.216;-1.698;2024-03-25T02:27:54;11.80;92.90
16863;DHT22;52193;48.216;-1.698;2024-03-25T02:30:20;11.80;92.90
16863;DHT22;52193;48.216;-1.698;2024-03-25T02:32:47;11.80;93.20
16863;DHT22;52193;48.216;-1.698;2024-03-25T02:35:15;11.70;93.00
16863;DHT22;52193;48.216;-1.698;2024-03-25T02:37:42;11.70;93.00
16863;DHT22;52193;48.216;-1.698;2024-03-25T02:40:09;11.70;93.00
16863;DHT22;52193;48.216;-1.698;2024-03-25T02:42:37;11.70;93.10
16863;DHT22;52193;48.216;-1.698;2024-03-25T02:45:07;11.60;93.10
16863;DHT22;52193;48.216;-1.698;2024-03-25T02:47:34;11.60;93.20
16863;DHT22;52193;48.216;-1.698;2024-03-25T02:50:00;11.60;93.20
16863;DHT22;52193;48.216;-1.698;2024-03-25T02:52:27;11.60;93.30
16863;DHT22;52193;48.216;-1.698;2024-03-25T02:54:53;11.60;93.30
16863;DHT22;52193;48.216;-1.698;2024-03-25T02:57:21;11.50;93.60
16863;DHT22;52193;48.216;-1.698;2024-03-25T02:59:47;11.50;93.30
16863;DHT22;52193;48.216;-1.698;2024-03-25T03:02:15;11.50;93.40
16863;DHT22;52193;48.216;-1.698;2024-03-25T03:04:41;11.50;93.40
16863;DHT22;52193;48.216;-1.698;2024-03-25T03:07:07;11.40;93.50
16863;DHT22;52193;48.216;-1.698;2024-03-25T03:09:33;11.40;93.40
16863;DHT22;52193;48.216;-1.698;2024-03-25T03:12:00;11.40;93.60
16863;DHT22;52193;48.216;-1.698;2024-03-25T03:14:26;11.40;93.60
16863;DHT22;52193;48.216;-1.698;2024-03-25T03:16:53;11.40;93.60
16863;DHT22;52193;48.216;-1.698;2024-03-25T03:19:21;11.40;93.70
16863;DHT22;52193;48.216;-1.698;2024-03-25T03:21:48;11.40;93.90
16863;DHT22;52193;48.216;-1.698;2024-03-25T03:24:14;11.40;94.20
16863;DHT22;52193;48.216;-1.698;2024-03-25T03:26:41;11.30;94.00
16863;DHT22;52193;48.216;-1.698;2024-03-25T03:29:07;11.30;94.10
16863;DHT22;52193;48.216;-1.698;2024-03-25T03:31:34;11.40;94.10
16863;DHT22;52193;48.216;-1.698;2024-03-25T03:34:00;11.40;94.20
16863;DHT22;52193;48.216;-1.698;2024-03-25T03:36:28;11.40;94.20
16863;DHT22;52193;48.216;-1.698;2024-03-25T03:38:54;11.40;94.30
16863;DHT22;52193;48.216;-1.698;2024-03-25T03:41:21;11.40;94.40
16863;DHT22;52193;48.216;-1.698;2024-03-25T03:43:47;11.40;94.50
16863;DHT22;52193;48.216;-1.698;2024-03-25T03:46:14;11.40;94.90
16863;DHT22;52193;48.216;-1.698;2024-03-25T03:48:40;11.40;95.00
16863;DHT22;52193;48.216;-1.698;2024-03-25T03:51:07;11.40;94.80
16863;DHT22;52193;48.216;-1.698;2024-03-25T03:53:35;11.40;94.80
16863;DHT22;52193;48.216;-1.698;2024-03-25T03:56:03;11.40;94.90
16863;DHT22;52193;48.216;-1.698;2024-03-25T03:58:31;11.40;95.10
16863;DHT22;52193;48.216;-1.698;2024-03-25T04:00:58;11.40;95.10
16863;DHT22;52193;48.216;-1.698;2024-03-25T04:03:24;11.40;95.30
16863;DHT22;52193;48.216;-1.698;2024-03-25T04:05:50;11.40;95.40
16863;DHT22;52193;48.216;-1.698;2024-03-25T04:08:16;11.40;95.50
16863;DHT22;52193;48.216;-1.698;2024-03-25T04:10:46;11.40;96.10
16863;DHT22;52193;48.216;-1.698;2024-03-25T04:13:12;11.40;96.00
16863;DHT22;52193;48.216;-1.698;2024-03-25T04:15:40;11.40;96.20
16863;DHT22;52193;48.216;-1.698;2024-03-25T04:18:06;11.40;96.40
16863;DHT22;52193;48.216;-1.698;2024-03-25T04:20:36;11.40;96.60
16863;DHT22;52193;48.216;-1.698;2024-03-25T04:23:02;11.40;96.80
16863;DHT22;52193;48.216;-1.698;2024-03-25T04:25:30;11.40;97.00
16863;DHT22;52193;48.216;-1.698;2024-03-25T04:27:57;11.40;97.40
16863;DHT22;52193;48.216;-1.698;2024-03-25T04:30:25;11.40;97.30
16863;DHT22;52193;48.216;-1.698;2024-03-25T04:32:51;11.40;97.40
16863;DHT22;52193;48.216;-1.698;2024-03-25T04:35:18;11.40;97.60
16863;DHT22;52193;48.216;-1.698;2024-03-25T04:37:44;11.40;97.80
16863;DHT22;52193;48.216;-1.698;2024-03-25T04:40:11;11.40;97.90
16863;DHT22;52193;48.216;-1.698;2024-03-25T04:42:37;11.50;98.00
16863;DHT22;52193;48.216;-1.698;2024-03-25T04:45:05;11.40;98.10
16863;DHT22;52193;48.216;-1.698;2024-03-25T04:47:31;11.50;98.20
16863;DHT22;52193;48.216;-1.698;2024-03-25T04:49:57;11.50;98.30
16863;DHT22;52193;48.216;-1.698;2024-03-25T04:52:23;11.50;98.80
16863;DHT22;52193;48.216;-1.698;2024-03-25T04:54:49;11.50;98.60
16863;DHT22;52193;48.216;-1.698;2024-03-25T04:57:15;11.50;98.60
16863;DHT22;52193;48.216;-1.698;2024-03-25T04:59:41;11.50;98.70
16863;DHT22;52193;48.216;-1.698;2024-03-25T05:02:09;11.50;99.10
16863;DHT22;52193;48.216;-1.698;2024-03-25T05:04:35;11.50;99.00
16863;DHT22;52193;48.216;-1.698;2024-03-25T05:07:00;11.50;99.10
16863;DHT22;52193;48.216;-1.698;2024-03-25T05:09:27;11.50;99.10
16863;DHT22;52193;48.216;-1.698;2024-03-25T05:11:53;11.50;99.30
16863;DHT22;52193;48.216;-1.698;2024-03-25T05:14:19;11.50;99.40
16863;DHT22;52193;48.216;-1.698;2024-03-25T05:16:44;11.50;99.50
16863;DHT22;52193;48.216;-1.698;2024-03-25T05:19:12;11.50;99.60
16863;DHT22;52193;48.216;-1.698;2024-03-25T05:21:38;11.50;99.70
16863;DHT22;52193;48.216;-1.698;2024-03-25T05:24:04;11.50;99.80
16863;DHT22;52193;48.216;-1.698;2024-03-25T05:26:30;11.50;99.90
16863;DHT22;52193;48.216;-1.698;2024-03-25T05:28:56;11.50;99.90
16863;DHT22;52193;48.216;-1.698;2024-03-25T05:31:23;11.50;99.90
16863;DHT22;52193;48.216;-1.698;2024-03-25T05:33:49;11.50;99.90
16863;DHT22;52193;48.216;-1.698;2024-03-25T05:36:16;11.50;99.90
16863;DHT22;52193;48.216;-1.698;2024-03-25T05:38:42;11.50;99.90
16863;DHT22;52193;48.216;-1.698;2024-03-25T05:41:08;11.50;99.90
16863;DHT22;52193;48.216;-1.698;2024-03-25T05:43:35;11.50;99.90
16863;DHT22;52193;48.216;-1.698;2024-03-25T05:46:01;11.50;99.90
16863;DHT22;52193;48.216;-1.698;2024-03-25T05:48:27;11.40;99.90
16863;DHT22;52193;48.216;-1.698;2024-03-25T05:51:00;11.40;99.90
16863;DHT22;52193;48.216;-1.698;2024-03-25T05:53:28;11.40;99.90
16863;DHT22;52193;48.216;-1.698;2024-03-25T05:55:56;11.30;99.90
16863;DHT22;52193;48.216;-1.698;2024-03-25T05:58:22;11.30;99.90
16863;DHT22;52193;48.216;-1.698;2024-03-25T06:00:48;11.30;99.90
16863;DHT22;52193;48.216;-1.698;2024-03-25T06:03:14;11.20;99.90
16863;DHT22;52193;48.216;-1.698;2024-03-25T06:05:40;11.20;99.90
16863;DHT22;52193;48.216;-1.698;2024-03-25T06:08:07;11.20;99.90
16863;DHT22;52193;48.216;-1.698;2024-03-25T06:10:47;11.20;99.90
16863;DHT22;52193;48.216;-1.698;2024-03-25T06:13:13;11.20;99.90
16863;DHT22;52193;48.216;-1.698;2024-03-25T06:15:39;11.10;99.90
16863;DHT22;52193;48.216;-1.698;2024-03-25T06:18:05;11.10;99.90
16863;DHT22;52193;48.216;-1.698;2024-03-25T06:20:31;11.10;99.90
16863;DHT22;52193;48.216;-1.698;2024-03-25T06:22:56;11.10;99.90
16863;DHT22;52193;48.216;-1.698;2024-03-25T06:25:22;11.10;99.90
16863;DHT22;52193;48.216;-1.698;2024-03-25T06:27:50;11.10;99.90
16863;DHT22;52193;48.216;-1.698;2024-03-25T06:30:16;11.10;99.90
16863;DHT22;52193;48.216;-1.698;2024-03-25T06:33:00;11.10;99.90
16863;DHT22;52193;48.216;-1.698;2024-03-25T06:35:44;11.00;99.90
16863;DHT22;52193;48.216;-1.698;2024-03-25T06:38:11;11.10;99.90
16863;DHT22;52193;48.216;-1.698;2024-03-25T06:40:37;11.00;99.90
16863;DHT22;52193;48.216;-1.698;2024-03-25T06:43:04;11.00;99.90
16863;DHT22;52193;48.216;-1.698;2024-03-25T06:45:30;11.00;99.90
16863;DHT22;52193;48.216;-1.698;2024-03-25T06:47:56;11.00;99.90
16863;DHT22;52193;48.216;-1.698;2024-03-25T06:50:22;11.10;99.90
16863;DHT22;52193;48.216;-1.698;2024-03-25T06:52:49;11.10;99.90
16863;DHT22;52193;48.216;-1.698;2024-03-25T06:55:15;11.00;99.90
16863;DHT22;52193;48.216;-1.698;2024-03-25T06:57:41;11.10;99.90
16863;DHT22;52193;48.216;-1.698;2024-03-25T07:00:08;11.10;99.90
16863;DHT22;52193;48.216;-1.698;2024-03-25T07:02:34;11.10;99.90
16863;DHT22;52193;48.216;-1.698;2024-03-25T07:05:00;11.10;99.90
16863;DHT22;52193;48.216;-1.698;2024-03-25T07:07:26;11.10;99.90
16863;DHT22;52193;48.216;-1.698;2024-03-25T07:09:52;11.20;99.90
16863;DHT22;52193;48.216;-1.698;2024-03-25T07:12:18;11.20;99.90
16863;DHT22;52193;48.216;-1.698;2024-03-25T07:14:44;11.20;99.90
16863;DHT22;52193;48.216;-1.698;2024-03-25T07:17:11;11.20;99.90
16863;DHT22;52193;48.216;-1.698;2024-03-25T07:19:37;11.20;99.90
16863;DHT22;52193;48.216;-1.698;2024-03-25T07:22:03;11.30;99.90
16863;DHT22;52193;48.216;-1.698;2024-03-25T07:24:29;11.30;99.90
16863;DHT22;52193;48.216;-1.698;2024-03-25T07:26:55;11.30;99.90
16863;DHT22;52193;48.216;-1.698;2024-03-25T07:29:21;11.30;99.90
16863;DHT22;52193;48.216;-1.698;2024-03-25T07:31:47;11.30;99.90
16863;DHT22;52193;48.216;-1.698;2024-03-25T07:34:14;11.40;99.90
16863;DHT22;52193;48.216;-1.698;2024-03-25T07:36:40;11.40;99.90
16863;DHT22;52193;48.216;-1.698;2024-03-25T07:39:06;11.40;99.90
16863;DHT22;52193;48.216;-1.698;2024-03-25T07:41:32;11.40;99.90
16863;DHT22;52193;48.216;-1.698;2024-03-25T07:43:58;11.40;99.90
16863;DHT22;52193;48.216;-1.698;2024-03-25T07:46:24;11.40;99.90
16863;DHT22;52193;48.216;-1.698;2024-03-25T07:48:50;11.50;99.90
16863;DHT22;52193;48.216;-1.698;2024-03-25T07:51:17;11.50;99.90
16863;DHT22;52193;48.216;-1.698;2024-03-25T07:53:43;11.50;99.90
16863;DHT22;52193;48.216;-1.698;2024-03-25T07:56:09;11.50;99.90
16863;DHT22;52193;48.216;-1.698;2024-03-25T07:58:35;11.50;99.90
16863;DHT22;52193;48.216;-1.698;2024-03-25T08:01:01;11.50;99.90
16863;DHT22;52193;48.216;-1.698;2024-03-25T08:03:27;11.50;99.90
16863;DHT22;52193;48.216;-1.698;2024-03-25T08:05:53;11.60;99.90
16863;DHT22;52193;48.216;-1.698;2024-03-25T08:08:20;11.60;99.90
16863;DHT22;52193;48.216;-1.698;2024-03-25T08:10:46;11.60;99.90
16863;DHT22;52193;48.216;-1.698;2024-03-25T08:13:15;11.60;99.90
16863;DHT22;52193;48.216;-1.698;2024-03-25T08:15:43;11.60;99.90
16863;DHT22;52193;48.216;-1.698;2024-03-25T08:18:09;11.70;99.90
16863;DHT22;52193;48.216;-1.698;2024-03-25T08:20:35;11.70;99.90
16863;DHT22;52193;48.216;-1.698;2024-03-25T08:23:01;11.70;99.90
16863;DHT22;52193;48.216;-1.698;2024-03-25T08:25:29;11.70;99.90
16863;DHT22;52193;48.216;-1.698;2024-03-25T08:27:54;11.80;99.90
16863;DHT22;52193;48.216;-1.698;2024-03-25T08:30:20;11.80;99.90
16863;DHT22;52193;48.216;-1.698;2024-03-25T08:32:46;11.80;99.90
16863;DHT22;52193;48.216;-1.698;2024-03-25T08:35:12;11.90;99.90
16863;DHT22;52193;48.216;-1.698;2024-03-25T08:37:38;11.90;99.90
16863;DHT22;52193;48.216;-1.698;2024-03-25T08:40:05;11.90;99.90
16863;DHT22;52193;48.216;-1.698;2024-03-25T08:42:33;11.90;99.90
16863;DHT22;52193;48.216;-1.698;2024-03-25T08:44:59;12.00;99.90
16863;DHT22;52193;48.216;-1.698;2024-03-25T08:47:25;12.00;99.90
16863;DHT22;52193;48.216;-1.698;2024-03-25T08:49:51;12.00;99.90
16863;DHT22;52193;48.216;-1.698;2024-03-25T08:52:17;12.10;99.90
16863;DHT22;52193;48.216;-1.698;2024-03-25T08:54:42;12.10;99.90
16863;DHT22;52193;48.216;-1.698;2024-03-25T08:57:08;12.20;99.90
16863;DHT22;52193;48.216;-1.698;2024-03-25T08:59:36;12.20;99.90
16863;DHT22;52193;48.216;-1.698;2024-03-25T09:02:02;12.20;99.90
16863;DHT22;52193;48.216;-1.698;2024-03-25T09:04:28;12.30;99.90
16863;DHT22;52193;48.216;-1.698;2024-03-25T09:06:54;12.30;99.90
16863;DHT22;52193;48.216;-1.698;2024-03-25T09:09:19;12.40;99.90
16863;DHT22;52193;48.216;-1.698;2024-03-25T09:12:04;12.40;99.90
16863;DHT22;52193;48.216;-1.698;2024-03-25T09:14:30;12.40;99.90
16863;DHT22;52193;48.216;-1.698;2024-03-25T09:16:57;12.50;99.90
16863;DHT22;52193;48.216;-1.698;2024-03-25T09:19:23;12.50;99.90
16863;DHT22;52193;48.216;-1.698;2024-03-25T09:21:49;12.50;99.90
16863;DHT22;52193;48.216;-1.698;2024-03-25T09:24:15;12.60;99.90
16863;DHT22;52193;48.216;-1.698;2024-03-25T09:26:41;12.60;99.90
16863;DHT22;52193;48.216;-1.698;2024-03-25T09:29:07;12.70;99.90
16863;DHT22;52193;48.216;-1.698;2024-03-25T09:31:33;12.80;99.90
16863;DHT22;52193;48.216;-1.698;2024-03-25T09:34:00;12.80;99.90
16863;DHT22;52193;48.216;-1.698;2024-03-25T09:36:26;12.80;99.60
16863;DHT22;52193;48.216;-1.698;2024-03-25T09:38:52;12.90;99.50
16863;DHT22;52193;48.216;-1.698;2024-03-25T09:41:18;12.90;99.70
16863;DHT22;52193;48.216;-1.698;2024-03-25T09:43:48;13.00;99.50
16863;DHT22;52193;48.216;-1.698;2024-03-25T09:46:14;13.10;99.60
16863;DHT22;52193;48.216;-1.698;2024-03-25T09:48:41;13.10;99.40
16863;DHT22;52193;48.216;-1.698;2024-03-25T09:51:09;13.20;99.30
16863;DHT22;52193;48.216;-1.698;2024-03-25T09:53:35;13.20;99.30
16863;DHT22;52193;48.216;-1.698;2024-03-25T09:56:02;13.30;99.30
16863;DHT22;52193;48.216;-1.698;2024-03-25T09:58:29;13.40;99.30
16863;DHT22;52193;48.216;-1.698;2024-03-25T10:00:56;13.40;99.00
16863;DHT22;52193;48.216;-1.698;2024-03-25T10:03:23;13.50;98.80
16863;DHT22;52193;48.216;-1.698;2024-03-25T10:05:49;13.50;98.40
16863;DHT22;52193;48.216;-1.698;2024-03-25T10:08:21;13.50;98.20
16863;DHT22;52193;48.216;-1.698;2024-03-25T10:10:47;13.60;98.20
16863;DHT22;52193;48.216;-1.698;2024-03-25T10:13:13;13.60;98.10
16863;DHT22;52193;48.216;-1.698;2024-03-25T10:15:39;13.70;98.00
16863;DHT22;52193;48.216;-1.698;2024-03-25T10:18:06;13.80;97.80
16863;DHT22;52193;48.216;-1.698;2024-03-25T10:20:32;13.80;97.80
16863;DHT22;52193;48.216;-1.698;2024-03-25T10:22:58;13.90;97.80
16863;DHT22;52193;48.216;-1.698;2024-03-25T10:25:26;14.00;98.10
16863;DHT22;52193;48.216;-1.698;2024-03-25T10:27:53;14.00;97.50
16863;DHT22;52193;48.216;-1.698;2024-03-25T10:30:19;14.10;97.30
16863;DHT22;52193;48.216;-1.698;2024-03-25T10:32:46;14.20;97.30
16863;DHT22;52193;48.216;-1.698;2024-03-25T10:35:12;14.30;97.30
16863;DHT22;52193;48.216;-1.698;2024-03-25T10:37:39;14.30;97.00
16863;DHT22;52193;48.216;-1.698;2024-03-25T10:40:09;14.40;96.10
16863;DHT22;52193;48.216;-1.698;2024-03-25T10:42:39;14.40;95.70
16863;DHT22;52193;48.216;-1.698;2024-03-25T10:45:09;14.40;95.40
16863;DHT22;52193;48.216;-1.698;2024-03-25T10:47:36;14.40;95.30
16863;DHT22;52193;48.216;-1.698;2024-03-25T10:50:08;14.40;95.20
16863;DHT22;52193;48.216;-1.698;2024-03-25T10:52:36;14.50;95.40
16863;DHT22;52193;48.216;-1.698;2024-03-25T10:55:03;14.50;95.30
16863;DHT22;52193;48.216;-1.698;2024-03-25T10:57:30;14.60;95.20
16863;DHT22;52193;48.216;-1.698;2024-03-25T10:59:58;14.70;95.20
16863;DHT22;52193;48.216;-1.698;2024-03-25T11:02:27;14.70;95.10
16863;DHT22;52193;48.216;-1.698;2024-03-25T11:04:53;14.80;95.20
16863;DHT22;52193;48.216;-1.698;2024-03-25T11:07:29;14.90;95.20
16863;DHT22;52193;48.216;-1.698;2024-03-25T11:10:03;15.00;95.10
16863;DHT22;52193;48.216;-1.698;2024-03-25T11:12:32;15.10;95.20
16863;DHT22;52193;48.216;-1.698;2024-03-25T11:15:01;15.20;95.20
16863;DHT22;52193;48.216;-1.698;2024-03-25T11:17:27;15.20;95.20
16863;DHT22;52193;48.216;-1.698;2024-03-25T11:19:53;15.30;95.20
16863;DHT22;52193;48.216;-1.698;2024-03-25T11:22:24;15.40;95.30
16863;DHT22;52193;48.216;-1.698;2024-03-25T11:24:50;15.50;94.90
16863;DHT22;52193;48.216;-1.698;2024-03-25T11:27:21;15.50;94.80
16863;DHT22;52193;48.216;-1.698;2024-03-25T11:29:48;15.50;95.10
16863;DHT22;52193;48.216;-1.698;2024-03-25T11:32:15;15.60;94.80
16863;DHT22;52193;48.216;-1.698;2024-03-25T11:34:50;15.70;94.80
16863;DHT22;52193;48.216;-1.698;2024-03-25T11:37:16;15.70;94.90
16863;DHT22;52193;48.216;-1.698;2024-03-25T11:39:42;15.90;95.00
16863;DHT22;52193;48.216;-1.698;2024-03-25T11:42:08;16.00;94.90
16863;DHT22;52193;48.216;-1.698;2024-03-25T11:44:36;16.10;94.80
16863;DHT22;52193;48.216;-1.698;2024-03-25T11:47:03;16.20;94.50
16863;DHT22;52193;48.216;-1.698;2024-03-25T11:49:31;16.20;94.20
16863;DHT22;52193;48.216;-1.698;2024-03-25T11:51:59;16.30;94.00
16863;DHT22;52193;48.216;-1.698;2024-03-25T11:54:27;16.40;94.00
16863;DHT22;52193;48.216;-1.698;2024-03-25T11:56:53;16.50;94.00
16863;DHT22;52193;48.216;-1.698;2024-03-25T11:59:20;16.60;93.80
16863;DHT22;52193;48.216;-1.698;2024-03-25T12:01:46;16.70;93.60
16863;DHT22;52193;48.216;-1.698;2024-03-25T12:04:16;16.70;93.30
16863;DHT22;52193;48.216;-1.698;2024-03-25T12:06:43;16.80;93.60
16863;DHT22;52193;48.216;-1.698;2024-03-25T12:09:10;16.90;93.40
16863;DHT22;52193;48.216;-1.698;2024-03-25T12:11:55;17.00;93.40
16863;DHT22;52193;48.216;-1.698;2024-03-25T12:14:21;17.00;93.40
16863;DHT22;52193;48.216;-1.698;2024-03-25T12:16:48;17.10;93.40
16863;DHT22;52193;48.216;-1.698;2024-03-25T12:19:15;17.30;93.40
16863;DHT22;52193;48.216;-1.698;2024-03-25T12:21:40;17.40;93.20
16863;DHT22;52193;48.216;-1.698;2024-03-25T12:24:08;17.50;93.60
16863;DHT22;52193;48.216;-1.698;2024-03-25T12:26:34;17.70;93.10
16863;DHT22;52193;48.216;-1.698;2024-03-25T12:29:00;17.80;92.70
16863;DHT22;52193;48.216;-1.698;2024-03-25T12:31:26;17.90;92.90
16863;DHT22;52193;48.216;-1.698;2024-03-25T12:33:52;18.00;92.90
16863;DHT22;52193;48.216;-1.698;2024-03-25T12:36:20;18.10;92.90
16863;DHT22;52193;48.216;-1.698;2024-03-25T12:38:54;18.20;92.60
16863;DHT22;52193;48.216;-1.698;2024-03-25T12:41:22;18.30;92.50
16863;DHT22;52193;48.216;-1.698;2024-03-25T12:43:50;18.40;92.60
16863;DHT22;52193;48.216;-1.698;2024-03-25T12:46:16;18.60;92.40
16863;DHT22;52193;48.216;-1.698;2024-03-25T12:48:42;18.70;91.90
16863;DHT22;52193;48.216;-1.698;2024-03-25T12:51:12;18.80;91.30
16863;DHT22;52193;48.216;-1.698;2024-03-25T12:53:38;18.90;90.90
16863;DHT22;52193;48.216;-1.698;2024-03-25T12:56:04;18.90;90.60
16863;DHT22;52193;48.216;-1.698;2024-03-25T12:58:32;18.90;90.40
16863;DHT22;52193;48.216;-1.698;2024-03-25T13:00:58;19.00;90.30
16863;DHT22;52193;48.216;-1.698;2024-03-25T13:03:24;19.00;90.50
16863;DHT22;52193;48.216;-1.698;2024-03-25T13:05:50;19.20;90.70
16863;DHT22;52193;48.216;-1.698;2024-03-25T13:08:16;19.30;90.90
16863;DHT22;52193;48.216;-1.698;2024-03-25T13:10:42;19.50;91.00
16863;DHT22;52193;48.216;-1.698;2024-03-25T13:13:08;19.50;90.60
16863;DHT22;52193;48.216;-1.698;2024-03-25T13:15:35;19.40;90.60
16863;DHT22;52193;48.216;-1.698;2024-03-25T13:18:01;19.30;90.70
16863;DHT22;52193;48.216;-1.698;2024-03-25T13:20:27;19.30;90.60
16863;DHT22;52193;48.216;-1.698;2024-03-25T13:22:54;19.10;90.60
16863;DHT22;52193;48.216;-1.698;2024-03-25T13:25:21;19.00;90.20
16863;DHT22;52193;48.216;-1.698;2024-03-25T13:27:47;18.80;89.60
16863;DHT22;52193;48.216;-1.698;2024-03-25T13:30:13;18.60;89.40
16863;DHT22;52193;48.216;-1.698;2024-03-25T13:32:40;18.50;89.70
16863;DHT22;52193;48.216;-1.698;2024-03-25T13:35:06;18.30;89.90
16863;DHT22;52193;48.216;-1.698;2024-03-25T13:37:32;18.20;90.00
16863;DHT22;52193;48.216;-1.698;2024-03-25T13:39:58;18.10;90.00
16863;DHT22;52193;48.216;-1.698;2024-03-25T13:42:24;18.10;90.20
16863;DHT22;52193;48.216;-1.698;2024-03-25T13:44:50;18.00;90.40
16863;DHT22;52193;48.216;-1.698;2024-03-25T13:47:16;18.00;90.40
16863;DHT22;52193;48.216;-1.698;2024-03-25T13:49:43;17.90;90.20
16863;DHT22;52193;48.216;-1.698;2024-03-25T13:52:09;17.90;90.40
16863;DHT22;52193;48.216;-1.698;2024-03-25T13:54:35;17.90;90.50
16863;DHT22;52193;48.216;-1.698;2024-03-25T13:57:01;18.00;90.70
16863;DHT22;52193;48.216;-1.698;2024-03-25T13:59:27;18.20;90.70
16863;DHT22;52193;48.216;-1.698;2024-03-25T14:01:53;18.20;91.00
16863;DHT22;52193;48.216;-1.698;2024-03-25T14:04:19;18.20;90.70
16863;DHT22;52193;48.216;-1.698;2024-03-25T14:06:46;18.30;90.80
16863;DHT22;52193;48.216;-1.698;2024-03-25T14:09:23;18.30;90.80
16863;DHT22;52193;48.216;-1.698;2024-03-25T14:11:49;18.30;90.50
16863;DHT22;52193;48.216;-1.698;2024-03-25T14:14:15;18.30;90.60
16863;DHT22;52193;48.216;-1.698;2024-03-25T14:16:41;18.20;90.70
16863;DHT22;52193;48.216;-1.698;2024-03-25T14:19:07;18.20;90.60
16863;DHT22;52193;48.216;-1.698;2024-03-25T14:21:33;18.20;90.70
16863;DHT22;52193;48.216;-1.698;2024-03-25T14:24:00;18.10;90.70
16863;DHT22;52193;48.216;-1.698;2024-03-25T14:26:26;18.10;90.60
16863;DHT22;52193;48.216;-1.698;2024-03-25T14:28:52;18.20;90.80
16863;DHT22;52193;48.216;-1.698;2024-03-25T14:31:18;18.10;90.70
16863;DHT22;52193;48.216;-1.698;2024-03-25T14:33:44;18.10;90.80
16863;DHT22;52193;48.216;-1.698;2024-03-25T14:36:09;18.10;90.60
16863;DHT22;52193;48.216;-1.698;2024-03-25T14:38:35;18.20;91.00
16863;DHT22;52193;48.216;-1.698;2024-03-25T14:41:03;18.20;90.80
16863;DHT22;52193;48.216;-1.698;2024-03-25T14:43:29;18.30;90.80
16863;DHT22;52193;48.216;-1.698;2024-03-25T14:45:55;18.40;90.90
16863;DHT22;52193;48.216;-1.698;2024-03-25T14:48:21;18.40;90.90
16863;DHT22;52193;48.216;-1.698;2024-03-25T14:50:47;18.40;90.90
16863;DHT22;52193;48.216;-1.698;2024-03-25T14:53:13;18.40;90.80
16863;DHT22;52193;48.216;-1.698;2024-03-25T14:55:38;18.40;90.90
16863;DHT22;52193;48.216;-1.698;2024-03-25T14:58:06;18.30;90.90
16863;DHT22;52193;48.216;-1.698;2024-03-25T15:00:32;18.30;90.90
16863;DHT22;52193;48.216;-1.698;2024-03-25T15:02:58;18.20;91.00
16863;DHT22;52193;48.216;-1.698;2024-03-25T15:05:23;18.20;91.10
16863;DHT22;52193;48.216;-1.698;2024-03-25T15:07:49;18.20;91.20
16863;DHT22;52193;48.216;-1.698;2024-03-25T15:10:15;18.10;91.60
16863;DHT22;52193;48.216;-1.698;2024-03-25T15:12:41;18.00;91.30